Time;durP1;ratioP1;P1;durP2;ratioP2;P2;SDS_P1;SDS_P2;PMS_P1;PMS_P2;Temp;Humidity;BMP_temperature;BMP_pressure;BME280_temperature;BME280_humidity;BME280_pressure;Samples;Min_cycle;Max_cycle;Signal;HPM_P1;HPM_P2
2023/03/06 00:01:27;;;;;;;27.92;12.75;;;25.80;99.90;;;;;;5033005;28;20026;-66
2023/03/06 00:03:53;;;;;;;22.58;11.95;;;25.70;99.90;;;;;;5033250;28;20356;-67
2023/03/06 00:06:20;;;;;;;30.63;12.10;;;25.70;99.90;;;;;;5033141;28;20471;-67
2023/03/06 00:08:47;;;;;;;26.38;12.18;;;25.80;99.90;;;;;;5033048;28;20038;-67
2023/03/06 00:11:14;;;;;;;34.53;13.05;;;25.80;99.90;;;;;;5033110;28;20489;-67
2023/03/06 00:13:40;;;;;;;45.70;20.27;;;25.90;99.90;;;;;;5032854;28;20037;-66
2023/03/06 00:16:07;;;;;;;43.83;20.88;;;25.80;99.90;;;;;;5031307;28;20466;-67
2023/03/06 00:18:34;;;;;;;48.00;20.83;;;25.90;99.90;;;;;;5035383;28;20033;-67
2023/03/06 00:21:00;;;;;;;38.33;16.08;;;25.90;99.90;;;;;;5036969;28;20018;-67
2023/03/06 00:23:27;;;;;;;42.70;15.07;;;25.90;99.90;;;;;;5036917;28;20018;-67
2023/03/06 00:25:53;;;;;;;36.22;14.77;;;25.90;99.90;;;;;;5036927;28;20045;-67
2023/03/06 00:28:20;;;;;;;38.67;14.85;;;25.90;99.90;;;;;;5037004;28;20044;-67
2023/03/06 00:30:47;;;;;;;34.97;14.30;;;25.90;99.90;;;;;;5036759;28;20430;-66
2023/03/06 00:33:13;;;;;;;38.90;14.65;;;25.90;99.90;;;;;;5036880;28;20112;-67
2023/03/06 00:35:41;;;;;;;36.78;14.75;;;25.90;99.90;;;;;;5037066;28;20033;-67
2023/03/06 00:38:11;;;;;;;33.70;15.93;;;25.90;99.90;;;;;;5036797;28;20026;-68
2023/03/06 00:40:37;;;;;;;40.13;15.25;;;25.90;99.90;;;;;;5036688;28;20442;-67
2023/03/06 00:43:04;;;;;;;35.90;16.17;;;26.00;99.90;;;;;;5036996;28;20048;-67
2023/03/06 00:45:31;;;;;;;39.05;17.52;;;26.00;99.90;;;;;;5036451;28;20029;-66
2023/03/06 00:47:57;;;;;;;42.58;20.13;;;26.00;99.90;;;;;;5036837;28;20029;-67
2023/03/06 00:50:24;;;;;;;41.53;20.25;;;26.00;99.90;;;;;;5036554;28;20032;-68
2023/03/06 00:52:50;;;;;;;35.58;19.67;;;26.00;99.90;;;;;;5036905;28;20047;-67
2023/03/06 00:55:17;;;;;;;38.58;19.90;;;26.00;99.90;;;;;;5036257;28;20045;-66
2023/03/06 00:57:43;;;;;;;43.28;18.85;;;26.00;99.90;;;;;;5036489;28;20018;-68
2023/03/06 01:00:11;;;;;;;41.47;20.00;;;26.00;99.90;;;;;;5036232;28;20036;-65
2023/03/06 01:02:38;;;;;;;33.30;17.23;;;26.00;99.90;;;;;;5037836;28;20028;-66
2023/03/06 01:05:06;;;;;;;32.72;17.05;;;26.00;99.90;;;;;;5051017;28;20417;-67
2023/03/06 01:07:35;;;;;;;29.38;15.20;;;26.00;99.90;;;;;;5038638;28;20021;-67
2023/03/06 01:10:03;;;;;;;38.45;20.55;;;26.10;99.90;;;;;;5050936;28;20028;-67
2023/03/06 01:12:29;;;;;;;60.08;42.38;;;26.10;99.90;;;;;;5040961;28;20041;-67
2023/03/06 01:14:56;;;;;;;44.75;20.58;;;26.20;99.90;;;;;;5035889;28;20075;-66
2023/03/06 01:17:22;;;;;;;39.55;21.10;;;26.30;99.90;;;;;;5035975;28;20084;-67
2023/03/06 01:19:49;;;;;;;42.10;19.70;;;26.30;99.90;;;;;;5035985;28;20072;-66
2023/03/06 01:22:15;;;;;;;51.05;25.20;;;26.30;99.90;;;;;;5042189;28;20025;-65
2023/03/06 01:24:42;;;;;;;53.60;27.63;;;26.30;99.90;;;;;;5055624;28;20025;-67
2023/03/06 01:27:08;;;;;;;64.95;28.77;;;26.30;99.90;;;;;;5055474;28;20017;-66
2023/03/06 01:29:35;;;;;;;43.03;23.02;;;26.40;99.90;;;;;;5055838;28;20029;-67
2023/03/06 01:32:01;;;;;;;36.70;18.95;;;26.40;99.90;;;;;;5055934;28;20424;-67
2023/03/06 01:34:28;;;;;;;45.58;22.42;;;26.40;99.90;;;;;;5055497;28;20421;-66
2023/03/06 01:36:54;;;;;;;45.88;23.98;;;26.40;99.90;;;;;;5055815;28;20428;-66
2023/03/06 01:39:21;;;;;;;50.05;26.05;;;26.50;99.90;;;;;;5055419;28;20099;-67
2023/03/06 01:41:47;;;;;;;52.63;23.40;;;26.50;99.90;;;;;;5055474;28;20074;-66
2023/03/06 01:44:14;;;;;;;50.40;22.77;;;26.60;99.90;;;;;;5055545;28;20498;-66
2023/03/06 01:46:41;;;;;;;48.50;23.13;;;26.60;99.90;;;;;;5055247;28;20025;-67
2023/03/06 01:49:33;;;;;;;43.53;22.60;;;26.70;99.90;;;;;;5055787;28;20082;-66
2023/03/06 01:52:08;;;;;;;44.47;22.85;;;26.80;99.90;;;;;;5055171;28;20033;-66
2023/03/06 01:54:41;;;;;;;44.08;21.15;;;26.90;99.90;;;;;;5054958;28;20041;-67
2023/03/06 01:57:11;;;;;;;93.90;55.20;;;27.00;99.90;;;;;;5055068;28;20509;-67
2023/03/06 01:59:39;;;;;;;60.58;30.52;;;27.00;99.90;;;;;;5055189;28;20032;-66
2023/03/06 02:02:08;;;;;;;46.42;22.67;;;27.10;99.90;;;;;;5055156;28;20033;-66
2023/03/06 02:04:37;;;;;;;51.17;24.42;;;27.10;99.90;;;;;;5054886;28;20029;-66
2023/03/06 02:07:05;;;;;;;53.15;23.58;;;27.10;99.90;;;;;;5054960;28;20074;-66
2023/03/06 02:09:33;;;;;;;49.85;23.23;;;27.20;99.90;;;;;;5055087;28;20025;-66
2023/03/06 02:12:05;;;;;;;51.65;24.45;;;27.20;99.90;;;;;;5054923;28;20052;-66
2023/03/06 02:14:31;;;;;;;68.57;26.50;;;27.20;99.90;;;;;;5054681;28;20025;-66
2023/03/06 02:16:58;;;;;;;50.75;25.52;;;27.30;99.90;;;;;;5054848;28;20312;-66
2023/03/06 02:19:55;;;;;;;52.70;24.95;;;27.20;99.90;;;;;;5054858;28;20031;-67
2023/03/06 02:22:22;;;;;;;53.70;24.13;;;27.30;99.90;;;;;;5053659;28;20037;-66
2023/03/06 02:25:02;;;;;;;54.33;24.13;;;27.30;99.90;;;;;;5054755;28;20033;-66
2023/03/06 02:27:28;;;;;;;56.03;27.65;;;27.40;99.90;;;;;;5054871;28;20024;-66
2023/03/06 02:29:55;;;;;;;63.33;29.45;;;27.40;99.90;;;;;;5054618;28;20029;-66
2023/03/06 02:32:21;;;;;;;48.60;24.33;;;27.50;99.90;;;;;;5054554;28;20520;-66
2023/03/06 02:34:53;;;;;;;50.30;23.65;;;27.50;99.90;;;;;;5054519;28;20017;-67
2023/03/06 02:37:22;;;;;;;50.60;21.85;;;27.60;99.90;;;;;;5054573;28;20060;-66
2023/03/06 02:40:02;;;;;;;34.47;19.48;;;27.60;99.90;;;;;;5055310;28;20028;-66
2023/03/06 02:42:29;;;;;;;44.63;23.17;;;27.60;99.90;;;;;;5056443;28;20029;-65
2023/03/06 02:44:58;;;;;;;46.13;21.85;;;27.70;99.90;;;;;;5058954;28;20059;-66
2023/03/06 02:47:24;;;;;;;65.55;31.38;;;27.80;99.90;;;;;;5064203;28;20025;-66
2023/03/06 02:49:51;;;;;;;57.80;30.70;;;27.90;99.90;;;;;;5056118;28;20033;-65
2023/03/06 02:52:18;;;;;;;65.47;36.83;;;27.90;99.90;;;;;;5054470;28;20055;-64
2023/03/06 02:54:44;;;;;;;152.98;96.18;;;27.90;99.90;;;;;;5043980;28;20571;-68
2023/03/06 02:59:10;;;;;;;55.28;32.00;;;28.00;99.90;;;;;;5086072;27;20424;-62
2023/03/06 03:01:37;;;;;;;56.53;26.60;;;28.10;99.90;;;;;;5090780;28;20032;-63
2023/03/06 03:04:04;;;;;;;38.22;20.73;;;28.10;99.90;;;;;;5090821;28;20473;-63
2023/03/06 03:06:30;;;;;;;71.35;38.60;;;28.20;99.90;;;;;;5081440;28;20036;-63
2023/03/06 03:08:57;;;;;;;71.78;40.30;;;28.20;99.90;;;;;;5090786;28;20477;-63
2023/03/06 03:11:23;;;;;;;42.22;23.08;;;28.20;99.90;;;;;;5090670;28;20020;-72
2023/03/06 03:13:50;;;;;;;51.33;29.80;;;28.20;99.90;;;;;;5090540;28;20032;-68
2023/03/06 03:16:16;;;;;;;40.08;20.73;;;28.20;99.90;;;;;;5091244;28;20017;-70
2023/03/06 03:18:49;;;;;;;43.97;19.70;;;28.20;99.90;;;;;;5090594;28;20029;-69
2023/03/06 03:21:17;;;;;;;51.20;25.88;;;28.30;99.90;;;;;;5086618;28;20012;-69
2023/03/06 03:23:43;;;;;;;47.80;20.25;;;28.30;99.90;;;;;;5058656;28;20025;-70
2023/03/06 03:26:16;;;;;;;56.30;21.40;;;28.30;99.90;;;;;;5058719;28;20009;-68
2023/03/06 03:28:42;;;;;;;43.92;18.60;;;28.30;99.90;;;;;;5059576;28;20021;-68
2023/03/06 03:31:11;;;;;;;41.17;19.30;;;28.20;99.90;;;;;;5059190;28;20026;-63
2023/03/06 03:33:38;;;;;;;37.47;17.55;;;28.20;99.90;;;;;;5057653;28;20024;-64
2023/03/06 03:36:06;;;;;;;35.42;16.95;;;28.20;99.90;;;;;;5059081;28;20028;-64
2023/03/06 03:38:33;;;;;;;44.05;18.45;;;28.20;99.90;;;;;;5059363;28;20108;-65
2023/03/06 03:41:03;;;;;;;46.97;19.15;;;28.20;99.90;;;;;;5057628;28;20017;-65
2023/03/06 03:47:05;;;;;;;35.07;17.97;;;28.30;99.90;;;;;;5067636;28;20132;-66
2023/03/06 03:49:31;;;;;;;42.35;21.33;;;28.30;99.90;;;;;;5070058;28;20031;-65
2023/03/06 03:51:58;;;;;;;55.95;22.90;;;28.40;99.90;;;;;;5070341;28;20016;-65
2023/03/06 03:54:24;;;;;;;40.08;19.75;;;28.50;99.90;;;;;;5070536;28;20025;-65
2023/03/06 03:56:51;;;;;;;41.45;23.10;;;28.50;99.90;;;;;;5069955;28;20028;-64
2023/03/06 03:59:18;;;;;;;45.97;23.42;;;28.60;99.90;;;;;;5070105;28;20052;-63
2023/03/06 04:01:44;;;;;;;36.00;18.05;;;28.60;99.90;;;;;;5069982;28;20021;-65
2023/03/06 04:04:11;;;;;;;42.58;17.88;;;28.70;99.90;;;;;;5069537;28;20477;-65
2023/03/06 04:06:38;;;;;;;26.63;13.38;;;28.70;99.90;;;;;;5069642;28;20103;-66
2023/03/06 04:09:05;;;;;;;30.63;14.18;;;28.70;99.90;;;;;;5065608;28;20289;-65
2023/03/06 04:11:31;;;;;;;38.65;17.55;;;28.70;99.90;;;;;;5053876;28;20481;-65
2023/03/06 04:13:58;;;;;;;29.13;15.98;;;28.80;99.90;;;;;;5056301;28;20024;-66
2023/03/06 04:16:25;;;;;;;35.40;16.25;;;28.80;99.90;;;;;;5055959;28;20488;-65
2023/03/06 04:18:51;;;;;;;34.83;18.60;;;28.80;99.90;;;;;;5052665;28;20029;-66
2023/03/06 04:21:18;;;;;;;38.08;18.70;;;28.80;99.90;;;;;;5053210;28;20028;-65
2023/03/06 04:23:44;;;;;;;41.85;16.27;;;28.90;99.90;;;;;;5054605;28;20422;-65
2023/03/06 04:26:11;;;;;;;41.13;20.65;;;29.00;99.90;;;;;;5053697;28;20017;-65
2023/03/06 04:28:37;;;;;;;63.42;36.30;;;29.10;99.90;;;;;;5053799;28;20024;-65
2023/03/06 04:31:04;;;;;;;41.05;22.40;;;29.20;99.90;;;;;;5053927;28;20040;-64
2023/03/06 04:33:30;;;;;;;52.22;16.80;;;29.20;99.90;;;;;;5053885;28;20021;-66
2023/03/06 04:35:57;;;;;;;37.08;15.65;;;29.30;99.90;;;;;;5053581;28;20029;-66
2023/03/06 04:38:23;;;;;;;35.28;16.48;;;29.20;99.90;;;;;;5053697;28;20033;-64
2023/03/06 04:40:50;;;;;;;34.47;15.93;;;29.30;99.90;;;;;;5054910;28;20096;-65
2023/03/06 04:43:17;;;;;;;32.42;16.17;;;29.30;99.90;;;;;;5054300;28;20013;-64
2023/03/06 04:45:43;;;;;;;28.27;14.68;;;29.40;99.90;;;;;;5054759;28;20123;-65
2023/03/06 04:48:13;;;;;;;35.85;16.50;;;29.40;99.90;;;;;;5053019;28;20104;-66
2023/03/06 04:50:40;;;;;;;27.50;13.45;;;29.30;99.90;;;;;;5054879;28;20085;-65
2023/03/06 04:53:07;;;;;;;31.08;11.82;;;29.40;99.90;;;;;;5054929;28;20028;-66
2023/03/06 04:55:34;;;;;;;31.90;14.50;;;29.30;99.90;;;;;;5054923;28;20062;-65
2023/03/06 04:58:01;;;;;;;31.27;13.00;;;29.30;99.90;;;;;;5054725;28;20083;-63
2023/03/06 05:00:30;;;;;;;34.50;14.70;;;29.50;99.90;;;;;;5055029;28;20021;-65
2023/03/06 05:02:59;;;;;;;36.85;14.25;;;29.50;99.90;;;;;;5054476;28;20032;-70
2023/03/06 05:05:26;;;;;;;49.50;26.27;;;29.60;99.90;;;;;;5054229;28;20013;-65
2023/03/06 05:07:52;;;;;;;59.22;35.38;;;29.70;99.90;;;;;;5051428;28;20025;-66
2023/03/06 05:10:20;;;;;;;32.13;19.48;;;29.70;99.90;;;;;;5053086;28;20083;-66
2023/03/06 05:12:47;;;;;;;38.75;21.13;;;29.80;99.90;;;;;;5052321;28;20068;-66
2023/03/06 05:15:14;;;;;;;40.10;22.35;;;29.80;99.90;;;;;;5052985;28;20447;-64
2023/03/06 05:17:40;;;;;;;40.47;22.77;;;29.90;99.90;;;;;;5053125;28;20036;-64
2023/03/06 05:20:08;;;;;;;25.83;12.50;;;30.10;99.90;;;;;;5052430;28;20067;-65
2023/03/06 05:22:35;;;;;;;32.92;13.32;;;30.10;99.90;;;;;;5051664;28;20470;-64
2023/03/06 05:25:03;;;;;;;28.30;12.48;;;30.10;99.90;;;;;;5050021;28;20024;-66
2023/03/06 05:27:30;;;;;;;26.95;12.23;;;30.10;99.90;;;;;;5053679;28;20021;-66
2023/03/06 05:29:57;;;;;;;23.73;12.55;;;30.20;99.90;;;;;;5053384;28;20083;-66
2023/03/06 05:32:23;;;;;;;26.50;12.93;;;30.20;99.90;;;;;;5053945;28;20013;-66
2023/03/06 05:34:50;;;;;;;29.90;11.85;;;30.30;99.90;;;;;;5052064;28;20067;-64
2023/03/06 05:37:16;;;;;;;26.00;11.98;;;30.40;99.90;;;;;;5053833;28;20044;-66
2023/03/06 05:39:43;;;;;;;24.27;12.85;;;30.50;99.90;;;;;;5053863;28;20079;-66
2023/03/06 05:42:09;;;;;;;27.20;12.15;;;30.60;99.90;;;;;;5053970;28;20181;-66
2023/03/06 05:44:36;;;;;;;24.80;11.35;;;30.60;99.90;;;;;;5054204;28;20032;-66
2023/03/06 05:47:03;;;;;;;20.88;9.63;;;30.70;99.90;;;;;;5054213;28;20024;-67
2023/03/06 05:49:34;;;;;;;22.35;10.90;;;30.70;99.90;;;;;;5053538;28;20036;-66
2023/03/06 05:52:03;;;;;;;25.48;10.75;;;30.70;99.90;;;;;;5053425;28;20108;-65
2023/03/06 05:54:34;;;;;;;23.00;10.18;;;30.90;99.90;;;;;;5053674;28;20032;-67
2023/03/06 05:57:01;;;;;;;24.40;11.00;;;30.90;99.90;;;;;;5054753;28;20029;-66
2023/03/06 05:59:28;;;;;;;23.08;10.82;;;30.90;99.90;;;;;;5053572;28;20035;-66
2023/03/06 06:01:55;;;;;;;19.08;9.90;;;30.90;99.90;;;;;;5053290;28;20127;-67
2023/03/06 06:04:23;;;;;;;20.77;8.70;;;30.90;99.90;;;;;;5053192;28;20095;-67
2023/03/06 06:06:55;;;;;;;21.35;7.68;;;30.90;99.90;;;;;;5050911;28;20025;-67
2023/03/06 06:09:22;;;;;;;23.33;8.93;;;30.90;99.90;;;;;;5046138;28;20029;-67
2023/03/06 06:11:52;;;;;;;19.95;9.07;;;30.90;99.90;;;;;;5052568;28;20024;-68
2023/03/06 06:14:19;;;;;;;35.70;12.70;;;30.90;99.90;;;;;;5053592;28;20428;-69
2023/03/06 06:16:46;;;;;;;48.42;27.17;;;30.90;99.90;;;;;;5052699;28;20032;-68
2023/03/06 06:19:17;;;;;;;64.32;38.85;;;30.80;99.90;;;;;;5052343;28;20097;-68
2023/03/06 06:21:50;;;;;;;35.63;19.00;;;30.90;99.90;;;;;;5052333;28;20016;-67
2023/03/06 06:24:18;;;;;;;28.70;10.18;;;31.00;99.90;;;;;;5049231;28;20100;-64
2023/03/06 06:26:45;;;;;;;23.85;9.13;;;31.00;99.90;;;;;;5050410;28;20021;-65
2023/03/06 06:29:12;;;;;;;23.33;10.15;;;31.10;99.90;;;;;;5050011;28;20067;-66
2023/03/06 06:31:40;;;;;;;77.03;48.97;;;31.10;99.90;;;;;;5046619;28;20103;-65
2023/03/06 06:34:07;;;;;;;25.30;13.95;;;31.20;99.90;;;;;;5049377;28;20369;-67
2023/03/06 06:36:34;;;;;;;25.80;11.05;;;31.20;99.90;;;;;;5049197;28;20029;-66
2023/03/06 06:39:01;;;;;;;59.25;38.88;;;31.20;99.90;;;;;;5047368;28;20133;-67
2023/03/06 06:41:28;;;;;;;26.95;11.77;;;31.20;99.90;;;;;;5049352;28;20028;-66
2023/03/06 06:43:54;;;;;;;22.40;11.55;;;31.20;99.90;;;;;;5052003;28;20017;-67
2023/03/06 06:46:21;;;;;;;19.25;9.98;;;31.20;99.90;;;;;;5052619;28;20104;-67
2023/03/06 06:48:53;;;;;;;22.23;10.13;;;31.30;99.90;;;;;;5050331;28;20025;-67
2023/03/06 06:51:21;;;;;;;24.58;9.10;;;31.20;99.90;;;;;;5052291;28;20484;-66
2023/03/06 06:53:51;;;;;;;27.40;10.45;;;31.30;99.90;;;;;;5052069;28;20067;-65
2023/03/06 06:56:17;;;;;;;29.80;11.60;;;31.30;99.90;;;;;;5053125;28;20025;-66
2023/03/06 06:58:44;;;;;;;23.35;10.07;;;31.40;99.90;;;;;;5052553;28;20068;-67
2023/03/06 07:01:12;;;;;;;22.98;8.23;;;31.50;99.90;;;;;;5052888;28;20020;-68
2023/03/06 07:03:39;;;;;;;26.08;14.85;;;31.50;99.90;;;;;;5053164;28;20021;-69
2023/03/06 07:06:07;;;;;;;26.17;12.48;;;31.50;99.90;;;;;;5053005;28;20021;-68
2023/03/06 07:08:34;;;;;;;21.90;10.57;;;31.50;99.90;;;;;;5052751;28;20071;-68
2023/03/06 07:11:11;;;;;;;24.38;11.30;;;31.50;99.90;;;;;;5052895;28;20025;-68
2023/03/06 07:13:38;;;;;;;27.00;11.32;;;31.50;99.90;;;;;;5052807;28;20053;-67
2023/03/06 07:16:05;;;;;;;24.90;10.45;;;31.50;99.90;;;;;;5052663;28;20021;-65
2023/03/06 07:18:32;;;;;;;22.45;9.80;;;31.50;99.90;;;;;;5052675;28;20028;-67
2023/03/06 07:20:58;;;;;;;24.73;11.05;;;31.50;99.90;;;;;;5052806;28;20568;-67
2023/03/06 07:23:26;;;;;;;24.75;9.60;;;31.50;99.90;;;;;;5052567;28;20024;-66
2023/03/06 07:25:56;;;;;;;26.08;10.35;;;31.50;99.90;;;;;;5052655;28;20025;-67
2023/03/06 07:28:22;;;;;;;32.60;10.25;;;31.50;99.90;;;;;;5044213;28;20029;-68
2023/03/06 07:30:49;;;;;;;18.08;9.10;;;31.50;99.90;;;;;;5032294;28;20025;-66
2023/03/06 07:33:17;;;;;;;23.20;11.30;;;31.40;99.90;;;;;;5032830;28;20099;-69
2023/03/06 07:35:44;;;;;;;24.98;10.88;;;31.40;99.90;;;;;;5032871;28;20112;-68
2023/03/06 07:38:10;;;;;;;33.58;15.23;;;31.40;99.90;;;;;;5032602;28;20513;-67
2023/03/06 07:40:38;;;;;;;33.60;16.40;;;31.40;99.90;;;;;;5032900;28;20486;-68
2023/03/06 07:43:05;;;;;;;35.55;19.15;;;31.40;99.90;;;;;;5032424;28;20109;-67
2023/03/06 07:45:33;;;;;;;56.95;39.47;;;31.50;99.90;;;;;;5035646;28;20017;-67
2023/03/06 07:47:59;;;;;;;59.05;42.47;;;31.40;99.90;;;;;;5036504;28;20445;-68
2023/03/06 07:50:27;;;;;;;29.15;13.60;;;31.40;99.90;;;;;;5036527;28;20474;-68
2023/03/06 07:52:53;;;;;;;25.10;10.77;;;31.40;99.90;;;;;;5036430;28;20118;-66
2023/03/06 07:55:20;;;;;;;21.83;10.75;;;31.40;99.90;;;;;;5036412;28;20024;-66
2023/03/06 07:57:50;;;;;;;27.45;11.07;;;31.40;99.90;;;;;;5036143;28;20043;-67
2023/03/06 08:00:17;;;;;;;21.58;11.05;;;31.40;99.90;;;;;;5036121;28;20462;-66
2023/03/06 08:02:44;;;;;;;24.52;12.70;;;31.40;99.90;;;;;;5036268;28;20021;-68
2023/03/06 08:05:13;;;;;;;28.48;13.80;;;31.30;99.90;;;;;;5036382;28;20104;-66
2023/03/06 08:07:40;;;;;;;27.05;12.27;;;31.30;99.90;;;;;;5045710;28;20033;-67
2023/03/06 08:10:07;;;;;;;25.23;13.82;;;31.30;99.90;;;;;;5036244;28;20029;-67
2023/03/06 08:12:34;;;;;;;26.83;15.38;;;31.20;99.90;;;;;;5036056;28;20026;-67
2023/03/06 08:15:00;;;;;;;31.92;15.70;;;31.20;99.90;;;;;;5035867;28;20069;-67
2023/03/06 08:17:27;;;;;;;22.92;12.23;;;31.20;99.90;;;;;;5035908;28;20083;-69
2023/03/06 08:19:53;;;;;;;26.60;12.48;;;31.20;99.90;;;;;;5035940;28;20095;-66
2023/03/06 08:22:20;;;;;;;35.05;14.27;;;31.20;99.90;;;;;;5042651;28;20013;-67
2023/03/06 08:24:47;;;;;;;26.10;13.93;;;31.20;99.90;;;;;;5054642;28;20075;-67
2023/03/06 08:27:13;;;;;;;28.75;15.65;;;31.20;99.90;;;;;;5055533;28;20481;-67
2023/03/06 08:29:40;;;;;;;36.80;18.88;;;31.20;99.90;;;;;;5055543;28;20059;-67
2023/03/06 08:32:09;;;;;;;65.00;33.75;;;31.20;99.90;;;;;;5055571;28;20078;-68
2023/03/06 08:34:38;;;;;;;81.90;54.65;;;31.10;99.90;;;;;;5054325;28;20366;-68
2023/03/06 08:37:05;;;;;;;43.30;25.40;;;31.20;99.90;;;;;;5055326;28;20055;-67
2023/03/06 08:39:32;;;;;;;43.63;22.77;;;31.20;99.90;;;;;;5055516;28;20017;-67
2023/03/06 08:41:58;;;;;;;39.30;23.15;;;31.20;99.90;;;;;;5055486;28;20025;-67
2023/03/06 08:44:25;;;;;;;36.08;20.20;;;31.10;99.90;;;;;;5055277;28;20044;-71
2023/03/06 08:46:51;;;;;;;53.88;27.98;;;31.20;99.90;;;;;;5048726;28;20044;-67
2023/03/06 08:49:18;;;;;;;60.30;35.00;;;31.20;99.90;;;;;;5038688;28;20072;-66
2023/03/06 08:51:44;;;;;;;120.65;68.07;;;31.20;99.90;;;;;;5045800;28;20013;-66
2023/03/06 08:54:12;;;;;;;42.13;20.38;;;31.20;99.90;;;;;;5035191;28;20463;-67
2023/03/06 08:56:39;;;;;;;39.80;23.95;;;31.20;99.90;;;;;;5036728;28;20026;-69
2023/03/06 08:59:07;;;;;;;57.90;29.50;;;31.10;99.90;;;;;;5035242;28;20048;-69
2023/03/06 09:01:36;;;;;;;94.20;55.70;;;31.10;99.90;;;;;;5036094;28;20029;-67
2023/03/06 09:04:12;;;;;;;37.17;19.42;;;31.10;99.90;;;;;;5034424;28;20032;-67
2023/03/06 09:06:42;;;;;;;66.30;30.60;;;31.10;99.90;;;;;;5035026;28;20474;-68
2023/03/06 09:09:09;;;;;;;52.70;23.25;;;31.20;99.90;;;;;;5035425;28;20038;-67
2023/03/06 09:11:36;;;;;;;52.47;21.95;;;31.20;99.90;;;;;;5035573;28;20513;-68
2023/03/06 09:14:03;;;;;;;57.00;28.25;;;31.20;99.90;;;;;;5033961;28;20037;-67
2023/03/06 09:16:30;;;;;;;61.28;32.05;;;31.20;99.90;;;;;;5033953;28;20033;-68
2023/03/06 09:18:57;;;;;;;50.75;25.52;;;31.20;99.90;;;;;;5034485;28;20033;-68
2023/03/06 09:21:25;;;;;;;31.17;18.02;;;31.20;99.90;;;;;;5045403;28;20025;-68
2023/03/06 09:23:52;;;;;;;25.92;12.90;;;31.20;99.90;;;;;;5035609;28;20449;-67
2023/03/06 09:26:19;;;;;;;36.58;14.50;;;31.20;99.90;;;;;;5034423;28;20072;-67
2023/03/06 09:28:45;;;;;;;29.98;14.40;;;31.20;99.90;;;;;;5034963;28;20063;-68
2023/03/06 09:31:15;;;;;;;28.52;14.18;;;31.20;99.90;;;;;;5034143;28;20033;-67
2023/03/06 09:33:42;;;;;;;28.35;12.90;;;31.10;99.90;;;;;;5034521;28;20025;-68
2023/03/06 09:36:14;;;;;;;21.08;11.32;;;31.10;99.90;;;;;;5034397;28;20022;-67
2023/03/06 09:38:41;;;;;;;22.15;10.35;;;31.10;99.90;;;;;;5035295;28;20067;-68
2023/03/06 09:41:22;;;;;;;18.80;10.73;;;31.20;99.90;;;;;;5034959;28;20024;-69
2023/03/06 09:43:51;;;;;;;23.43;12.63;;;31.20;99.90;;;;;;5035205;28;20492;-67
2023/03/06 09:46:30;;;;;;;40.65;18.38;;;31.20;99.90;;;;;;5034874;28;20415;-67
2023/03/06 09:48:57;;;;;;;60.83;33.97;;;31.20;99.90;;;;;;5034381;28;20441;-67
2023/03/06 09:51:34;;;;;;;41.95;25.95;;;31.20;99.90;;;;;;5041518;28;20485;-68
2023/03/06 09:54:12;;;;;;;34.53;19.02;;;31.20;99.90;;;;;;5035916;28;20071;-68
2023/03/06 09:56:43;;;;;;;40.17;23.40;;;31.20;99.90;;;;;;5034158;28;20470;-67
2023/03/06 09:59:20;;;;;;;28.25;11.95;;;31.20;99.90;;;;;;5033724;28;20045;-68
2023/03/06 10:02:12;;;;;;;23.00;13.20;;;31.10;99.90;;;;;;5034049;28;20100;-68
2023/03/06 10:04:49;;;;;;;20.25;11.20;;;31.10;99.90;;;;;;5033647;28;20049;-68
2023/03/06 10:07:21;;;;;;;23.20;11.70;;;31.00;99.90;;;;;;5033258;28;20100;-68
2023/03/06 10:09:51;;;;;;;41.10;25.65;;;30.90;99.90;;;;;;5033509;28;20025;-69
2023/03/06 10:12:24;;;;;;;26.73;16.27;;;30.90;99.90;;;;;;5033646;28;20104;-68
2023/03/06 10:21:56;;;;;;;72.45;41.90;;;30.70;99.90;;;;;;5030356;27;2639813;-69
2023/03/06 10:24:30;;;;;;;77.45;47.15;;;30.60;99.90;;;;;;5110666;28;20055;-68
2023/03/06 10:31:31;;;;;;;40.42;23.33;;;30.60;99.90;;;;;;5111297;27;20412;-68
2023/03/06 10:34:15;;;;;;;41.05;25.13;;;30.50;99.90;;;;;;5110431;28;20031;-68
2023/03/06 10:36:42;;;;;;;54.88;30.55;;;30.50;99.90;;;;;;5110914;28;20110;-68
2023/03/06 10:39:15;;;;;;;39.17;18.77;;;30.50;99.90;;;;;;5105538;28;20024;-68
2023/03/06 10:41:42;;;;;;;28.55;12.38;;;30.50;99.90;;;;;;5090457;28;20032;-69
2023/03/06 10:44:08;;;;;;;34.05;15.82;;;30.40;99.90;;;;;;5090587;28;20032;-69
2023/03/06 10:46:36;;;;;;;120.70;65.20;;;30.40;99.90;;;;;;5090049;28;20036;-68
2023/03/06 10:49:08;;;;;;;62.65;33.85;;;30.50;99.90;;;;;;5090120;28;20028;-70
2023/03/06 10:51:34;;;;;;;42.70;19.58;;;30.50;99.90;;;;;;5090231;28;20032;-67
2023/03/06 10:54:12;;;;;;;51.03;26.33;;;30.40;99.90;;;;;;5090070;28;20134;-68
2023/03/06 10:56:42;;;;;;;48.70;27.75;;;30.40;99.90;;;;;;5098166;28;20019;-69
2023/03/06 10:59:17;;;;;;;62.25;36.85;;;30.40;99.90;;;;;;5106925;28;20027;-69
2023/03/06 11:01:46;;;;;;;140.82;84.57;;;30.30;99.90;;;;;;5109168;28;20131;-68
2023/03/06 11:04:22;;;;;;;119.35;72.53;;;30.40;99.90;;;;;;5109246;28;20019;-68
2023/03/06 11:07:06;;;;;;;73.57;38.55;;;30.30;99.90;;;;;;5101358;28;20102;-69
2023/03/06 11:09:33;;;;;;;80.00;42.95;;;30.30;99.90;;;;;;5089350;28;20382;-69
2023/03/06 11:12:21;;;;;;;69.70;34.25;;;30.20;99.90;;;;;;5088360;28;20417;-70
2023/03/06 11:15:08;;;;;;;40.58;22.40;;;30.10;99.90;;;;;;5103533;28;20039;-65
2023/03/06 11:17:47;;;;;;;38.83;19.55;;;30.00;99.90;;;;;;5106565;28;20020;-68
2023/03/06 11:20:14;;;;;;;37.75;16.90;;;30.00;99.90;;;;;;5106315;28;20036;-66
2023/03/06 11:22:44;;;;;;;28.27;16.38;;;29.90;99.90;;;;;;5109184;28;20012;-65
2023/03/06 11:25:14;;;;;;;28.25;14.85;;;29.90;99.90;;;;;;5108416;28;20421;-66
2023/03/06 11:27:44;;;;;;;32.63;16.65;;;29.90;99.90;;;;;;5108616;28;20027;-64
2023/03/06 11:30:15;;;;;;;31.80;19.65;;;29.80;99.90;;;;;;5108651;28;20062;-65
2023/03/06 11:32:52;;;;;;;27.77;15.10;;;29.80;99.90;;;;;;5108754;28;20016;-66
2023/03/06 11:35:34;;;;;;;27.02;13.20;;;29.70;99.90;;;;;;5104710;28;20024;-65
2023/03/06 11:38:13;;;;;;;33.33;15.13;;;29.70;99.90;;;;;;5106687;28;20072;-65
2023/03/06 11:40:44;;;;;;;27.65;13.68;;;29.60;99.90;;;;;;5102928;28;20028;-65
2023/03/06 11:43:17;;;;;;;30.00;13.93;;;29.50;99.90;;;;;;5094860;28;20023;-65
2023/03/06 11:45:55;;;;;;;63.88;42.03;;;29.50;99.90;;;;;;5094539;28;20240;-64
2023/03/06 11:48:26;;;;;;;44.63;23.52;;;29.50;99.90;;;;;;5093437;28;20098;-68
2023/03/06 11:50:58;;;;;;;45.63;21.33;;;29.50;99.90;;;;;;5092014;28;20371;-68
2023/03/06 11:53:32;;;;;;;35.30;16.52;;;29.50;99.90;;;;;;5095022;28;20070;-70
2023/03/06 11:56:09;;;;;;;52.00;34.80;;;29.50;99.90;;;;;;5093193;28;20020;-67
2023/03/06 11:58:55;;;;;;;34.15;17.13;;;29.50;99.90;;;;;;5092481;28;20035;-69
2023/03/06 12:01:31;;;;;;;28.63;13.57;;;29.40;99.90;;;;;;5091918;28;20012;-66
2023/03/06 12:04:05;;;;;;;31.83;14.05;;;29.30;99.90;;;;;;5093908;28;20016;-67
2023/03/06 12:06:32;;;;;;;35.30;15.43;;;29.20;99.90;;;;;;5095326;28;20027;-68
2023/03/06 12:09:03;;;;;;;26.08;12.13;;;29.30;99.90;;;;;;5095323;28;20468;-67
2023/03/06 12:11:37;;;;;;;29.88;13.63;;;29.30;99.90;;;;;;5089019;28;20028;-68
2023/03/06 12:14:13;;;;;;;25.30;12.82;;;29.30;99.90;;;;;;5080166;28;20500;-68
2023/03/06 12:16:45;;;;;;;26.52;12.73;;;29.20;99.90;;;;;;5075082;28;20013;-66
2023/03/06 12:19:35;;;;;;;24.35;12.10;;;29.10;99.90;;;;;;5074543;28;20016;-67
2023/03/06 12:22:02;;;;;;;30.60;12.65;;;29.10;99.90;;;;;;5075629;28;20042;-66
2023/03/06 12:24:56;;;;;;;27.00;12.30;;;29.00;99.90;;;;;;5075116;28;20469;-73
2023/03/06 12:27:51;;;;;;;21.73;11.93;;;29.10;99.90;;;;;;5094185;28;20127;-68
2023/03/06 12:30:32;;;;;;;26.23;12.15;;;29.10;99.90;;;;;;5093022;28;20066;-68
2023/03/06 12:33:15;;;;;;;26.98;12.50;;;29.00;99.90;;;;;;5092834;28;20115;-67
2023/03/06 12:35:56;;;;;;;26.80;12.82;;;29.00;99.90;;;;;;5094510;28;20089;-67
2023/03/06 12:38:36;;;;;;;28.80;11.90;;;29.00;99.90;;;;;;5094482;28;20047;-67
2023/03/06 12:41:07;;;;;;;26.27;12.63;;;29.00;99.90;;;;;;5094364;28;20090;-65
2023/03/06 12:43:36;;;;;;;22.23;12.13;;;29.10;99.90;;;;;;5092738;28;20218;-67
2023/03/06 12:46:11;;;;;;;25.23;12.27;;;29.00;99.90;;;;;;5094305;28;20494;-66
2023/03/06 12:48:40;;;;;;;27.67;12.20;;;29.00;99.90;;;;;;5092836;28;20055;-66
2023/03/06 12:51:12;;;;;;;25.10;13.23;;;28.90;99.90;;;;;;5095143;28;20016;-66
2023/03/06 12:53:41;;;;;;;27.73;13.93;;;28.90;99.90;;;;;;5093893;28;20035;-68
2023/03/06 12:56:08;;;;;;;21.30;10.85;;;29.00;99.90;;;;;;5094658;28;20042;-67